Terminal Aerodrome Forecast
Issued by NWS Brownsville, TX

Home | Current Version | Previous Version | Text Only | Print | Product List | Glossary On
Versions: 1 2 3 4 5 6 7 8 9 10 11 12 13 14 15 16
000
FTUS44 KBRO 272300
TAFHRL
TAF
KHRL 272329Z 2800/2824 03012G18KT P6SM FEW120
     FM280200 VRB04KT P6SM SCT025 SCT120
     FM280900 VRB04KT P6SM VCSH SCT025 BKN120
      TEMPO 2811/2815 5SM RA BR BKN025
     FM281500 09012G18KT P6SM VCTS SCT025CB BKN040
      TEMPO 2815/2819 3SM TSRA BKN020CB=

USA.gov is the U.S. government's official web portal to all federal, state and local government web resources and services.